Time;durP1;ratioP1;P1;durP2;ratioP2;P2;SDS_P1;SDS_P2;PMS_P1;PMS_P2;Temp;Humidity;BMP_temperature;BMP_pressure;BME280_temperature;BME280_humidity;BME280_pressure;Samples;Min_cycle;Max_cycle;Signal;HPM_P1;HPM_P2
2022/07/17 00:00:31;;;;;;;6.87;6.27;;;;;;;22.95;67.47;95206.13;5038381;28;20460;-79
2022/07/17 00:02:58;;;;;;;7.63;6.80;;;;;;;22.98;67.50;95209.22;5073254;28;20448;-79
2022/07/17 00:05:25;;;;;;;6.43;5.80;;;;;;;22.96;67.43;95211.28;5073403;28;20445;-78
2022/07/17 00:07:53;;;;;;;8.33;5.80;;;;;;;22.95;67.14;95219.50;5073390;28;20474;-78
2022/07/17 00:10:20;;;;;;;6.83;5.50;;;;;;;22.92;67.25;95219.91;5073061;28;20488;-79
2022/07/17 00:12:47;;;;;;;6.60;6.20;;;;;;;22.89;67.18;95213.13;5073524;28;20488;-79
2022/07/17 00:15:14;;;;;;;6.80;6.20;;;;;;;22.89;67.16;95217.63;5073160;28;20441;-79
2022/07/17 00:17:41;;;;;;;6.93;5.50;;;;;;;22.91;67.58;95220.94;5072807;28;20433;-78
2022/07/17 00:20:09;;;;;;;6.53;5.93;;;;;;;22.93;67.41;95222.41;5073478;28;20441;-78
2022/07/17 00:22:36;;;;;;;6.47;5.97;;;;;;;22.92;67.56;95225.28;5073270;28;20448;-79
2022/07/17 00:25:05;;;;;;;7.93;5.90;;;;;;;22.92;67.55;95223.41;5073285;28;20449;-79
2022/07/17 00:27:32;;;;;;;6.57;6.00;;;;;;;22.88;67.56;95230.19;5073535;28;20446;-77
2022/07/17 00:30:00;;;;;;;6.20;5.63;;;;;;;22.79;67.94;95229.47;5072527;28;20851;-79
2022/07/17 00:32:27;;;;;;;6.70;6.20;;;;;;;22.77;68.09;95239.53;5073182;28;20490;-78
2022/07/17 00:34:53;;;;;;;7.53;5.80;;;;;;;22.75;68.13;95222.03;5072953;28;20440;-79
2022/07/17 00:37:20;;;;;;;6.53;5.93;;;;;;;22.73;68.23;95226.75;5073036;28;20796;-79
2022/07/17 00:39:47;;;;;;;6.90;6.30;;;;;;;22.71;68.28;95224.28;5054316;28;20479;-78
2022/07/17 00:42:17;;;;;;;8.90;6.30;;;;;;;22.69;68.33;95226.34;5073215;28;20448;-79
2022/07/17 00:44:45;;;;;;;6.77;6.07;;;;;;;22.68;68.76;95235.38;5073284;28;20522;-79
2022/07/17 00:47:16;;;;;;;7.17;5.40;;;;;;;22.66;68.51;95233.94;5073223;28;20451;-77
2022/07/17 00:49:43;;;;;;;7.20;6.30;;;;;;;22.63;68.57;95227.13;5073054;28;20537;-78
2022/07/17 00:52:10;;;;;;;7.50;5.80;;;;;;;22.64;68.37;95223.44;5072797;28;20510;-78
2022/07/17 00:54:38;;;;;;;5.57;5.13;;;;;;;22.64;68.46;95227.94;5072819;28;20931;-78
2022/07/17 00:57:08;;;;;;;5.97;5.57;;;;;;;22.64;68.67;95228.78;5072865;28;20453;-78
2022/07/17 00:59:36;;;;;;;9.03;6.20;;;;;;;22.65;68.73;95235.78;5073218;28;20468;-78
2022/07/17 01:02:04;;;;;;;7.87;5.90;;;;;;;22.61;68.76;95231.84;5072811;28;20455;-79
2022/07/17 01:04:32;;;;;;;5.67;5.17;;;;;;;22.59;68.67;95238.41;5073058;28;20526;-77
2022/07/17 01:06:59;;;;;;;6.27;5.77;;;;;;;22.55;69.00;95240.63;5072809;28;20445;-79
2022/07/17 01:09:26;;;;;;;7.67;6.40;;;;;;;22.54;69.35;95237.13;5072758;28;20476;-79
2022/07/17 01:11:53;;;;;;;6.10;5.70;;;;;;;22.48;69.49;95253.13;5072858;28;20444;-79
2022/07/17 01:14:20;;;;;;;6.80;6.30;;;;;;;22.47;69.28;95249.63;5072496;28;20476;-80
2022/07/17 01:16:49;;;;;;;5.37;4.97;;;;;;;22.48;69.63;95253.13;5073014;28;20441;-79
2022/07/17 01:19:16;;;;;;;6.90;5.43;;;;;;;22.47;69.88;95257.66;5073233;28;20445;-78
2022/07/17 01:21:46;;;;;;;6.80;6.20;;;;;;;22.46;69.98;95253.34;5072982;28;20528;-78
2022/07/17 01:24:14;;;;;;;6.97;6.40;;;;;;;22.46;69.25;95252.50;5072934;28;20452;-79
2022/07/17 01:26:42;;;;;;;6.57;6.03;;;;;;;22.43;69.74;95247.56;5072611;28;20449;-79
2022/07/17 01:29:10;;;;;;;9.57;6.23;;;;;;;22.42;69.67;95251.25;5075653;28;20526;-79
2022/07/17 01:31:37;;;;;;;6.10;5.57;;;;;;;22.40;69.91;95245.25;5076079;28;20967;-80
2022/07/17 01:34:06;;;;;;;5.93;5.40;;;;;;;22.38;69.65;95250.81;5076115;28;20834;-79
2022/07/17 01:36:33;;;;;;;6.57;5.87;;;;;;;22.37;69.68;95251.84;5076210;28;20922;-79
2022/07/17 01:39:02;;;;;;;6.33;5.83;;;;;;;22.32;69.76;95242.75;5076266;28;20456;-78
2022/07/17 01:41:29;;;;;;;6.63;6.13;;;;;;;22.28;69.89;95241.47;5076315;28;20832;-80
2022/07/17 01:43:56;;;;;;;6.90;5.93;;;;;;;22.30;69.99;95244.78;5076007;28;20459;-79
2022/07/17 01:46:23;;;;;;;6.73;6.23;;;;;;;22.27;70.41;95248.69;5075903;28;20874;-79
2022/07/17 01:48:50;;;;;;;6.00;5.53;;;;;;;22.19;70.24;95246.94;5076400;28;20456;-78
2022/07/17 01:51:17;;;;;;;6.70;6.10;;;;;;;22.13;70.67;95253.06;5075759;28;20990;-79
2022/07/17 01:53:43;;;;;;;6.77;5.90;;;;;;;22.08;70.79;95252.81;5040831;28;20453;-78
2022/07/17 01:56:11;;;;;;;5.90;5.50;;;;;;;22.01;71.34;95248.41;5075648;28;21194;-77
2022/07/17 01:58:39;;;;;;;6.23;5.73;;;;;;;21.97;71.47;95247.94;5075740;28;20449;-77
2022/07/17 02:01:06;;;;;;;7.10;5.67;;;;;;;21.96;71.62;95246.28;5075749;28;20457;-79
2022/07/17 02:03:32;;;;;;;8.10;5.20;;;;;;;21.96;71.92;95246.28;5075553;28;20817;-79
2022/07/17 02:05:59;;;;;;;6.53;5.87;;;;;;;21.96;73.14;95257.81;5056812;28;21154;-76
2022/07/17 02:08:26;;;;;;;7.53;5.47;;;;;;;21.95;74.94;95260.66;5075387;28;20861;-79
2022/07/17 02:10:53;;;;;;;7.30;6.20;;;;;;;21.98;76.10;95252.28;5057157;28;20485;-78
2022/07/17 02:13:21;;;;;;;6.87;6.10;;;;;;;21.98;77.64;95248.78;5040115;28;20473;-79
2022/07/17 02:15:48;;;;;;;6.63;6.13;;;;;;;21.94;78.06;95259.00;5075744;28;20460;-79
2022/07/17 02:18:14;;;;;;;7.20;6.60;;;;;;;21.90;78.20;95253.22;5075386;28;20460;-78
2022/07/17 02:20:41;;;;;;;6.67;6.17;;;;;;;21.85;77.96;95249.47;5056958;28;20432;-79
2022/07/17 02:23:08;;;;;;;6.60;6.00;;;;;;;21.80;78.22;95258.06;5075281;28;21006;-79
2022/07/17 02:25:35;;;;;;;7.03;6.40;;;;;;;21.72;78.62;95260.88;5075397;28;20507;-77
2022/07/17 02:28:02;;;;;;;7.20;6.57;;;;;;;21.64;78.40;95259.13;5075075;28;20958;-79
2022/07/17 02:30:30;;;;;;;5.70;5.30;;;;;;;21.58;78.37;95251.88;5075241;28;20487;-78
2022/07/17 02:32:56;;;;;;;6.50;5.90;;;;;;;21.54;78.04;95255.94;5075168;28;20807;-79
2022/07/17 02:35:23;;;;;;;6.73;6.13;;;;;;;21.49;78.01;95250.34;5075437;28;20499;-77
2022/07/17 02:37:50;;;;;;;6.47;5.83;;;;;;;21.44;78.07;95252.75;5074808;28;20456;-78
2022/07/17 02:40:17;;;;;;;6.83;6.20;;;;;;;21.46;77.98;95260.56;5074486;28;20444;-79
2022/07/17 02:42:44;;;;;;;6.53;6.03;;;;;;;21.44;78.00;95262.59;5074997;28;20445;-78
2022/07/17 02:45:11;;;;;;;6.80;6.27;;;;;;;21.41;77.62;95268.31;5074915;28;20449;-79
2022/07/17 02:47:39;;;;;;;6.53;5.70;;;;;;;21.37;77.69;95267.84;5056544;28;20453;-79
2022/07/17 02:50:09;;;;;;;12.80;6.33;;;;;;;21.34;77.64;95265.56;5075058;28;20497;-79
2022/07/17 02:52:36;;;;;;;6.77;6.10;;;;;;;21.30;77.71;95269.63;5074683;28;20456;-79
2022/07/17 02:55:04;;;;;;;6.53;6.00;;;;;;;21.23;77.72;95266.00;5074545;28;20445;-78
2022/07/17 02:57:30;;;;;;;5.97;5.57;;;;;;;21.24;77.87;95278.38;5039661;28;20857;-78
2022/07/17 02:59:57;;;;;;;7.90;7.10;;;;;;;21.25;78.00;95274.69;5074508;28;20927;-78
2022/07/17 03:02:24;;;;;;;6.33;5.83;;;;;;;21.22;77.59;95280.38;5074643;28;20444;-79
2022/07/17 03:04:52;;;;;;;5.83;5.33;;;;;;;21.21;77.87;95281.38;5074233;28;20536;-79
2022/07/17 03:07:19;;;;;;;6.17;5.57;;;;;;;21.21;77.68;95284.88;5074414;28;20793;-79
2022/07/17 03:09:46;;;;;;;12.20;5.53;;;;;;;21.19;77.97;95286.91;5074705;28;20467;-78
2022/07/17 03:12:13;;;;;;;6.17;5.67;;;;;;;21.16;77.79;95281.13;5074472;28;20520;-79
2022/07/17 03:14:39;;;;;;;6.80;6.23;;;;;;;21.19;77.40;95294.09;5074121;28;20500;-77
2022/07/17 03:17:06;;;;;;;7.53;6.13;;;;;;;21.17;77.26;95294.28;5055390;28;20440;-80
2022/07/17 03:19:33;;;;;;;5.93;5.50;;;;;;;21.21;77.37;95300.06;5073934;28;20779;-80
2022/07/17 03:22:01;;;;;;;6.57;5.97;;;;;;;21.25;77.02;95301.38;5073829;28;20448;-79
2022/07/17 03:24:28;;;;;;;6.80;6.20;;;;;;;21.25;76.90;95306.72;5071589;28;20452;-79
2022/07/17 03:26:55;;;;;;;5.70;5.30;;;;;;;21.33;76.33;95310.13;5072825;28;20445;-78
2022/07/17 03:29:22;;;;;;;5.47;4.93;;;;;;;21.40;76.00;95296.88;5073737;28;20452;-77
2022/07/17 03:31:49;;;;;;;6.40;5.80;;;;;;;21.49;75.64;95303.75;5073974;28;20812;-79
2022/07/17 03:34:16;;;;;;;10.10;6.17;;;;;;;21.69;74.73;95305.84;5074035;28;20450;-79
2022/07/17 03:36:46;;;;;;;11.90;6.20;;;;;;;21.90;73.81;95308.50;5073802;28;20444;-76
2022/07/17 03:39:14;;;;;;;7.03;6.30;;;;;;;22.16;72.47;95308.81;5073660;28;20446;-76
2022/07/17 03:41:41;;;;;;;7.83;5.33;;;;;;;22.39;71.59;95305.94;5073415;28;21044;-77
2022/07/17 03:44:08;;;;;;;5.83;5.30;;;;;;;22.70;69.81;95310.94;5074013;28;20425;-78
2022/07/17 03:46:35;;;;;;;5.77;5.00;;;;;;;22.92;69.11;95313.59;5073627;28;20441;-76
2022/07/17 03:49:02;;;;;;;5.53;4.93;;;;;;;23.10;67.94;95321.94;5073635;28;20445;-78
2022/07/17 03:51:29;;;;;;;5.93;5.50;;;;;;;23.27;67.61;95325.13;5072726;28;20485;-81
2022/07/17 03:53:56;;;;;;;9.80;5.87;;;;;;;23.74;85.73;95324.34;5073196;28;20453;-78
2022/07/17 03:56:24;;;;;;;5.30;4.90;;;;;;;24.17;69.95;95326.72;5073045;28;20461;-75
2022/07/17 03:58:51;;;;;;;5.57;5.07;;;;;;;24.44;64.15;95331.13;5073101;28;20912;-80
2022/07/17 04:01:17;;;;;;;6.13;5.10;;;;;;;24.71;62.74;95338.19;5073619;28;20927;-78
2022/07/17 04:03:44;;;;;;;5.30;4.90;;;;;;;25.04;61.31;95348.09;5073320;28;20872;-78
2022/07/17 04:06:11;;;;;;;6.63;4.80;;;;;;;25.27;59.91;95345.81;5073242;28;20448;-78
2022/07/17 04:08:38;;;;;;;6.00;4.60;;;;;;;25.47;58.73;95347.63;5073175;28;20454;-79
2022/07/17 04:11:05;;;;;;;5.53;5.03;;;;;;;25.62;58.07;95345.50;5054376;28;20492;-79
2022/07/17 04:13:33;;;;;;;10.43;5.00;;;;;;;25.79;57.98;95357.47;5072726;28;20870;-79
2022/07/17 04:16:00;;;;;;;7.73;5.27;;;;;;;25.95;57.02;95353.47;5073261;28;20456;-80
2022/07/17 04:18:29;;;;;;;8.30;5.27;;;;;;;26.08;56.76;95352.59;5073521;28;20514;-78
2022/07/17 04:20:57;;;;;;;4.73;4.33;;;;;;;26.22;56.08;95349.59;5072788;28;20452;-79
2022/07/17 04:23:24;;;;;;;5.10;4.67;;;;;;;26.34;55.52;95351.66;5073229;28;20449;-79
2022/07/17 04:25:51;;;;;;;4.90;4.47;;;;;;;26.50;55.52;95361.88;5073161;28;20455;-79
2022/07/17 04:28:18;;;;;;;5.13;4.23;;;;;;;26.73;54.76;95364.00;5073185;28;20936;-79
2022/07/17 04:30:46;;;;;;;5.27;4.77;;;;;;;26.91;53.41;95372.16;5073269;28;20923;-80
2022/07/17 04:33:13;;;;;;;5.33;4.77;;;;;;;27.04;53.17;95369.38;5072935;28;20936;-79
2022/07/17 04:35:40;;;;;;;5.30;4.80;;;;;;;27.29;52.83;95372.06;5073183;28;20464;-78
2022/07/17 04:38:08;;;;;;;7.37;4.90;;;;;;;27.51;51.04;95367.06;5072579;28;20448;-79
2022/07/17 04:40:37;;;;;;;4.63;4.23;;;;;;;27.64;51.41;95363.44;5054486;28;20938;-81
2022/07/17 04:43:04;;;;;;;8.00;4.23;;;;;;;27.82;49.91;95360.75;5073109;28;20473;-79
2022/07/17 04:45:31;;;;;;;4.20;3.90;;;;;;;27.97;49.59;95371.13;5072665;28;20782;-79
2022/07/17 04:47:59;;;;;;;4.37;4.03;;;;;;;28.02;49.97;95373.97;5072902;28;20443;-80
2022/07/17 04:50:26;;;;;;;4.50;4.00;;;;;;;28.08;51.43;95375.78;5063885;28;20836;-81
2022/07/17 04:52:53;;;;;;;6.70;4.47;;;;;;;28.22;49.17;95377.25;5071805;28;20499;-81
2022/07/17 04:55:20;;;;;;;6.30;4.30;;;;;;;28.41;49.40;95377.25;5072422;28;20474;-81
2022/07/17 04:57:46;;;;;;;7.13;4.37;;;;;;;28.58;49.41;95375.53;5072968;28;20518;-79
2022/07/17 05:00:14;;;;;;;5.13;3.73;;;;;;;28.75;47.22;95375.72;5069444;28;20859;-78
2022/07/17 05:02:41;;;;;;;6.80;4.13;;;;;;;28.88;47.31;95381.75;5073141;28;20935;-78
2022/07/17 05:05:10;;;;;;;4.70;4.30;;;;;;;29.12;47.69;95395.31;5077006;28;20467;-82
2022/07/17 05:07:37;;;;;;;5.80;3.97;;;;;;;29.26;46.92;95394.03;5059137;28;20449;-82
2022/07/17 05:10:04;;;;;;;4.60;3.90;;;;;;;29.36;42.19;95399.69;5056802;28;20465;-79
2022/07/17 05:12:31;;;;;;;4.63;4.30;;;;;;;29.39;39.73;95396.50;5033851;28;20501;-80
2022/07/17 05:14:58;;;;;;;4.37;3.53;;;;;;;29.41;38.41;95396.28;5070773;28;21037;-80
2022/07/17 05:17:25;;;;;;;5.13;3.47;;;;;;;29.34;38.31;95406.38;5074760;28;20475;-81
2022/07/17 05:19:52;;;;;;;4.03;3.73;;;;;;;29.34;39.77;95401.81;5057088;28;20460;-79
2022/07/17 05:22:20;;;;;;;5.70;4.60;;;;;;;29.28;37.70;95391.94;5057117;28;20476;-80
2022/07/17 05:24:47;;;;;;;5.10;4.40;;;;;;;29.27;37.27;95393.81;5056900;28;20807;-82
2022/07/17 05:27:14;;;;;;;6.23;4.40;;;;;;;29.38;38.21;95392.16;5057144;28;20453;-79
2022/07/17 05:29:41;;;;;;;4.60;4.20;;;;;;;29.24;37.30;95401.56;5056066;28;20450;-80
2022/07/17 05:32:07;;;;;;;4.50;4.00;;;;;;;29.29;37.77;95393.56;5055880;28;20827;-77
2022/07/17 05:34:34;;;;;;;6.40;5.80;;;;;;;29.31;37.25;95391.47;5056654;28;20453;-81
2022/07/17 05:37:01;;;;;;;7.40;4.70;;;;;;;29.37;35.85;95393.22;5056806;28;20456;-80
2022/07/17 05:39:29;;;;;;;8.67;4.00;;;;;;;29.51;37.15;95397.38;5070980;28;20442;-79
2022/07/17 05:41:56;;;;;;;6.63;3.93;;;;;;;29.64;35.95;95400.88;5056327;28;20933;-82
2022/07/17 05:44:23;;;;;;;8.13;6.77;;;;;;;29.68;35.53;95392.06;5056432;28;20852;-82
2022/07/17 05:46:50;;;;;;;5.40;4.90;;;;;;;29.89;36.65;95399.56;5056416;28;20446;-83
2022/07/17 05:49:16;;;;;;;14.13;7.80;;;;;;;30.07;34.28;95401.34;5056169;28;20445;-79
2022/07/17 05:51:43;;;;;;;8.83;4.90;;;;;;;30.36;35.44;95398.63;5054017;28;20495;-80
2022/07/17 05:54:10;;;;;;;5.03;3.50;;;;;;;30.41;33.55;95401.47;5055880;28;20951;-79
2022/07/17 05:56:38;;;;;;;4.40;4.10;;;;;;;30.42;34.27;95397.69;5055770;28;20817;-79
2022/07/17 05:59:05;;;;;;;8.53;4.20;;;;;;;30.63;38.01;95394.31;5055840;28;20453;-80
2022/07/17 06:01:32;;;;;;;4.80;4.27;;;;;;;30.80;34.84;95402.50;5056142;28;20464;-80
2022/07/17 06:03:59;;;;;;;3.60;3.30;;;;;;;30.71;32.94;95399.38;5055977;28;20544;-81
2022/07/17 06:06:25;;;;;;;4.23;3.60;;;;;;;30.89;36.38;95403.72;5056366;28;20434;-80
2022/07/17 06:08:52;;;;;;;6.13;3.70;;;;;;;31.00;33.29;95407.47;5055744;28;20460;-81
2022/07/17 06:11:19;;;;;;;4.77;4.23;;;;;;;30.95;34.08;95407.38;5056217;28;20489;-80
2022/07/17 06:13:47;;;;;;;3.73;3.20;;;;;;;31.23;34.60;95409.25;5055551;28;20480;-80
2022/07/17 06:16:14;;;;;;;4.63;3.73;;;;;;;31.49;38.14;95411.25;5069232;28;20457;-80
2022/07/17 06:18:41;;;;;;;3.53;3.20;;;;;;;31.78;34.49;95412.00;5055566;28;20528;-80
2022/07/17 06:21:07;;;;;;;4.00;3.40;;;;;;;31.50;31.89;95410.19;5055591;28;20453;-78
2022/07/17 06:23:34;;;;;;;4.60;4.03;;;;;;;31.46;33.48;95403.63;5053200;28;20445;-79
2022/07/17 06:26:01;;;;;;;4.37;3.97;;;;;;;31.34;32.05;95406.44;5055277;28;20445;-80
2022/07/17 06:28:28;;;;;;;4.83;3.73;;;;;;;31.08;31.77;95413.28;5055627;28;20441;-79
2022/07/17 06:30:56;;;;;;;6.30;4.30;;;;;;;30.95;31.87;95410.91;5055631;28;20441;-79
2022/07/17 06:33:23;;;;;;;4.60;3.50;;;;;;;30.85;32.49;95412.59;5055417;28;20983;-79
2022/07/17 06:35:50;;;;;;;8.67;4.30;;;;;;;31.11;32.57;95406.56;5055475;28;20480;-80
2022/07/17 06:38:16;;;;;;;6.50;4.00;;;;;;;31.11;33.33;95412.81;5055265;28;20916;-77
2022/07/17 06:40:43;;;;;;;7.07;4.00;;;;;;;31.27;31.94;95413.91;5052362;28;20453;-76
2022/07/17 06:43:10;;;;;;;4.00;3.60;;;;;;;31.13;31.58;95409.84;5054656;28;20453;-77
2022/07/17 06:45:37;;;;;;;5.00;4.57;;;;;;;31.03;31.72;95417.81;5054366;28;20453;-77
2022/07/17 06:48:06;;;;;;;4.50;3.90;;;;;;;30.90;31.28;95413.50;5068779;28;20847;-77
2022/07/17 06:50:33;;;;;;;8.10;4.20;;;;;;;30.95;31.49;95415.50;5054493;28;20445;-77
2022/07/17 06:53:00;;;;;;;8.30;4.00;;;;;;;31.19;32.47;95414.31;5054642;28;20489;-77
2022/07/17 06:55:27;;;;;;;10.87;4.10;;;;;;;31.50;34.05;95414.78;5054557;28;20465;-78
2022/07/17 06:57:53;;;;;;;3.37;3.07;;;;;;;31.84;30.77;95416.44;5054335;28;20446;-78
2022/07/17 07:00:20;;;;;;;7.87;4.33;;;;;;;32.09;30.87;95423.28;5054236;28;20852;-78
2022/07/17 07:02:47;;;;;;;4.57;3.67;;;;;;;32.31;30.46;95421.41;5054497;28;20445;-77
2022/07/17 07:05:16;;;;;;;3.80;3.50;;;;;;;32.36;29.88;95418.75;5068588;28;20453;-77
2022/07/17 07:07:42;;;;;;;3.97;3.20;;;;;;;32.50;30.90;95409.16;5054165;28;20446;-78
2022/07/17 07:10:10;;;;;;;5.80;3.70;;;;;;;32.57;30.72;95423.38;5054010;28;20784;-77
2022/07/17 07:12:37;;;;;;;3.83;3.53;;;;;;;32.48;30.03;95416.75;5053698;28;20497;-78
2022/07/17 07:15:04;;;;;;;5.30;3.47;;;;;;;31.90;30.04;95425.47;5053482;28;20454;-77
2022/07/17 07:17:32;;;;;;;4.60;4.30;;;;;;;31.66;31.10;95424.81;5053142;28;20445;-77
2022/07/17 07:19:58;;;;;;;4.00;3.70;;;;;;;31.75;31.06;95428.78;5053424;28;20441;-78
2022/07/17 07:22:28;;;;;;;16.40;5.60;;;;;;;32.01;31.61;95429.97;5051048;28;20929;-78
2022/07/17 07:24:55;;;;;;;13.50;6.30;;;;;;;32.21;30.87;95424.00;5053735;28;20497;-79
2022/07/17 07:27:21;;;;;;;5.67;4.60;;;;;;;32.06;29.70;95424.59;5053083;28;20441;-78
2022/07/17 07:29:49;;;;;;;5.67;5.10;;;;;;;31.97;31.72;95426.13;5053365;28;20477;-79
2022/07/17 07:32:16;;;;;;;3.83;3.40;;;;;;;31.72;30.31;95429.28;5052933;28;20486;-78
2022/07/17 07:34:42;;;;;;;4.13;3.73;;;;;;;31.66;30.45;95425.66;5050821;28;20425;-79
2022/07/17 07:37:09;;;;;;;3.70;3.17;;;;;;;31.82;30.91;95426.75;5053126;28;20454;-79
2022/07/17 07:39:37;;;;;;;5.67;3.60;;;;;;;31.91;30.19;95427.13;5052790;28;20766;-78
2022/07/17 07:42:05;;;;;;;4.40;4.00;;;;;;;32.01;32.19;95428.06;5052872;28;20454;-78
2022/07/17 07:44:32;;;;;;;3.93;3.63;;;;;;;31.84;30.75;95423.78;5052780;28;20452;-79
2022/07/17 07:46:59;;;;;;;4.20;3.90;;;;;;;31.62;31.64;95429.09;5052695;28;20452;-77
2022/07/17 07:49:26;;;;;;;5.03;4.63;;;;;;;31.57;32.06;95431.75;5052812;28;20469;-79
2022/07/17 07:51:53;;;;;;;7.27;4.50;;;;;;;31.60;31.90;95431.25;5067074;28;20493;-79
2022/07/17 07:54:20;;;;;;;4.90;4.40;;;;;;;31.56;32.49;95432.81;5017511;28;20446;-78
2022/07/17 07:56:49;;;;;;;4.60;4.20;;;;;;;31.63;32.44;95434.28;5052768;28;20525;-78
2022/07/17 07:59:16;;;;;;;5.73;3.80;;;;;;;31.32;32.85;95438.41;5017337;28;20479;-78
2022/07/17 08:01:42;;;;;;;7.10;3.70;;;;;;;31.43;32.48;95432.06;5052502;28;20447;-78
2022/07/17 08:04:09;;;;;;;6.60;3.63;;;;;;;31.63;32.74;95433.47;5052902;28;20445;-79
2022/07/17 08:06:36;;;;;;;3.80;3.50;;;;;;;31.71;31.62;95433.06;5052600;28;20939;-78
2022/07/17 08:09:03;;;;;;;4.40;4.00;;;;;;;31.94;32.54;95432.88;5052734;28;20453;-79
2022/07/17 08:11:30;;;;;;;6.73;4.03;;;;;;;32.13;30.90;95427.97;5052234;28;20450;-79
2022/07/17 08:13:59;;;;;;;5.77;4.20;;;;;;;32.08;31.41;95430.59;5052278;28;20504;-74
2022/07/17 08:16:25;;;;;;;8.50;3.97;;;;;;;32.11;31.84;95434.72;5052224;28;20449;-77
2022/07/17 08:18:52;;;;;;;7.73;3.47;;;;;;;32.07;31.99;95431.66;5052759;28;20446;-79
2022/07/17 08:21:20;;;;;;;4.17;3.87;;;;;;;32.25;31.72;95430.56;5052129;28;20449;-78
2022/07/17 08:23:47;;;;;;;8.90;4.10;;;;;;;32.36;31.00;95429.63;5066683;28;20462;-78
2022/07/17 08:26:13;;;;;;;4.33;3.93;;;;;;;32.27;30.53;95429.25;5052380;28;20449;-79
2022/07/17 08:28:40;;;;;;;5.40;3.70;;;;;;;31.64;32.33;95427.78;5052007;28;20441;-78
2022/07/17 08:31:09;;;;;;;4.40;4.00;;;;;;;31.58;31.82;95428.78;5052422;28;20449;-78
2022/07/17 08:33:36;;;;;;;7.93;4.20;;;;;;;31.68;32.55;95426.22;5052126;28;20489;-79
2022/07/17 08:36:03;;;;;;;3.80;3.50;;;;;;;31.80;31.41;95412.56;5052329;28;20445;-79
2022/07/17 08:38:30;;;;;;;4.87;3.80;;;;;;;31.74;30.94;95422.53;5051868;28;20455;-79
2022/07/17 08:40:58;;;;;;;8.63;4.00;;;;;;;31.64;31.22;95421.53;5051959;28;20450;-77
2022/07/17 08:43:26;;;;;;;5.43;4.23;;;;;;;31.52;31.87;95418.94;5066270;28;20449;-78
2022/07/17 08:45:52;;;;;;;4.20;3.90;;;;;;;31.57;33.08;95415.47;5052014;28;20449;-79
2022/07/17 08:48:21;;;;;;;6.50;5.30;;;;;;;31.70;32.66;95418.66;5051903;28;20453;-79
2022/07/17 08:50:48;;;;;;;4.47;3.97;;;;;;;31.88;31.53;95424.91;5052452;28;20445;-79
2022/07/17 08:53:15;;;;;;;4.10;3.80;;;;;;;31.67;31.33;95421.84;5051810;28;20487;-78
2022/07/17 08:55:42;;;;;;;7.47;4.63;;;;;;;31.66;30.19;95424.81;5051049;28;20953;-82
2022/07/17 08:58:09;;;;;;;5.10;3.73;;;;;;;31.49;30.60;95419.41;5051950;28;20450;-78
2022/07/17 09:00:36;;;;;;;4.23;3.83;;;;;;;31.58;31.17;95417.13;5059556;28;20449;-81
2022/07/17 09:03:07;;;;;;;5.20;3.93;;;;;;;31.69;32.55;95413.47;5064587;28;20464;-83
2022/07/17 09:05:37;;;;;;;9.73;4.10;;;;;;;31.84;31.67;95415.63;5073834;28;20439;-88
2022/07/17 09:08:06;;;;;;;5.73;4.90;;;;;;;31.88;33.34;95409.44;5065752;28;20837;-80
2022/07/17 09:10:38;;;;;;;4.97;3.73;;;;;;;31.76;31.59;95408.72;5052089;28;20453;-79
2022/07/17 09:13:24;;;;;;;4.47;4.07;;;;;;;31.64;31.72;95405.25;5052743;28;20501;-79
2022/07/17 09:15:54;;;;;;;7.43;3.80;;;;;;;31.67;31.86;95402.03;5053142;28;20455;-77
2022/07/17 09:18:21;;;;;;;7.90;4.40;;;;;;;31.46;32.37;95392.78;5054485;28;20465;-79
2022/07/17 09:20:50;;;;;;;4.47;4.07;;;;;;;31.39;34.94;95397.56;5053765;28;20433;-80
2022/07/17 09:23:19;;;;;;;6.10;5.03;;;;;;;31.46;32.98;95398.19;5072811;28;20445;-77
2022/07/17 09:25:47;;;;;;;5.13;4.37;;;;;;;31.31;32.08;95406.94;5072438;28;20452;-78
2022/07/17 09:28:16;;;;;;;4.67;4.20;;;;;;;31.45;32.86;95396.56;5072441;28;20919;-80
2022/07/17 09:30:45;;;;;;;4.30;3.90;;;;;;;31.60;32.09;95404.13;5072893;28;20448;-81
2022/07/17 09:33:17;;;;;;;5.80;4.03;;;;;;;31.62;32.01;95397.38;5054210;28;20542;-80
2022/07/17 09:35:50;;;;;;;4.07;3.77;;;;;;;31.39;30.82;95408.41;5065624;28;20442;-79
2022/07/17 09:38:31;;;;;;;4.13;3.67;;;;;;;31.37;31.63;95396.97;5052644;28;20515;-80
2022/07/17 09:41:16;;;;;;;5.60;5.10;;;;;;;31.12;31.32;95398.19;5067794;28;20456;-80
2022/07/17 09:43:48;;;;;;;4.27;3.87;;;;;;;31.04;31.71;95405.91;5072670;28;20528;-79
2022/07/17 09:46:17;;;;;;;7.83;7.03;;;;;;;31.16;32.63;95393.09;5071022;28;20869;-79
2022/07/17 09:48:47;;;;;;;6.00;4.30;;;;;;;31.23;32.08;95393.78;5072231;28;20911;-79
2022/07/17 09:51:23;;;;;;;3.57;3.27;;;;;;;31.17;30.88;95402.06;5063197;28;20488;-80
2022/07/17 09:53:52;;;;;;;11.40;10.23;;;;;;;31.09;31.16;95390.53;5068018;28;20484;-82
2022/07/17 09:56:20;;;;;;;8.50;5.63;;;;;;;31.00;31.18;95393.91;5055786;28;20446;-86
2022/07/17 09:58:50;;;;;;;4.27;3.67;;;;;;;30.55;31.73;95402.81;5055516;28;20928;-79
2022/07/17 10:01:17;;;;;;;5.10;4.60;;;;;;;30.39;31.94;95399.00;5020569;28;20450;-77
2022/07/17 10:03:45;;;;;;;6.50;4.67;;;;;;;30.38;32.46;95399.25;5067034;28;20445;-81
2022/07/17 10:06:12;;;;;;;5.57;3.50;;;;;;;30.36;32.22;95404.06;5075831;28;20817;-79
2022/07/17 10:08:40;;;;;;;4.53;4.10;;;;;;;30.10;33.12;95397.34;5068122;28;20454;-76
2022/07/17 10:11:08;;;;;;;5.30;4.80;;;;;;;30.16;33.24;95390.94;5066376;28;20455;-78
2022/07/17 10:13:39;;;;;;;4.67;4.37;;;;;;;30.18;32.72;95392.34;5066053;28;20512;-78
2022/07/17 10:16:06;;;;;;;6.50;3.80;;;;;;;30.08;32.93;95394.88;5056972;28;20449;-78
2022/07/17 10:18:39;;;;;;;4.67;4.37;;;;;;;30.08;33.03;95391.34;5074550;28;20506;-77
2022/07/17 10:21:14;;;;;;;3.90;3.60;;;;;;;29.77;32.70;95384.41;5074153;28;20856;-77
2022/07/17 10:23:43;;;;;;;6.83;4.00;;;;;;;29.76;32.75;95382.75;5073891;28;20472;-77
2022/07/17 10:26:11;;;;;;;4.10;3.90;;;;;;;29.58;32.17;95381.84;5055473;28;20446;-83
2022/07/17 10:28:44;;;;;;;6.17;5.67;;;;;;;29.76;33.37;95385.47;5075324;28;20445;-78
2022/07/17 10:31:11;;;;;;;10.97;4.60;;;;;;;29.74;32.94;95382.16;5075338;28;20448;-80
2022/07/17 10:33:38;;;;;;;5.83;5.33;;;;;;;29.66;33.65;95382.53;5067015;28;20494;-77
2022/07/17 10:36:05;;;;;;;6.90;4.40;;;;;;;29.62;33.03;95376.78;5073906;28;20444;-76
2022/07/17 10:38:43;;;;;;;4.90;3.67;;;;;;;29.68;32.91;95377.72;5056091;28;20437;-79
2022/07/17 10:41:19;;;;;;;14.70;7.00;;;;;;;29.75;33.57;95381.09;5039531;28;20487;-79
2022/07/17 10:43:49;;;;;;;5.20;4.37;;;;;;;29.82;35.46;95371.00;5074987;28;20486;-79
2022/07/17 10:46:15;;;;;;;7.33;4.30;;;;;;;29.85;33.64;95371.34;5074900;28;20449;-79
2022/07/17 10:48:48;;;;;;;3.97;3.57;;;;;;;29.86;31.91;95372.97;5075005;28;20448;-81
2022/07/17 10:51:16;;;;;;;4.23;3.73;;;;;;;29.72;33.08;95376.16;5075172;28;20457;-81
2022/07/17 10:53:44;;;;;;;3.87;3.57;;;;;;;29.77;33.22;95387.91;5075088;28;20575;-80
2022/07/17 10:56:13;;;;;;;8.53;3.80;;;;;;;29.72;33.16;95381.59;5075054;28;20441;-78
2022/07/17 10:58:41;;;;;;;5.83;4.53;;;;;;;29.84;32.45;95369.69;5074734;28;20455;-80
2022/07/17 11:01:10;;;;;;;6.50;3.60;;;;;;;29.75;32.40;95376.50;5055526;28;20506;-81
2022/07/17 11:03:39;;;;;;;3.53;3.20;;;;;;;29.76;34.05;95377.34;5074694;28;20456;-81
2022/07/17 11:06:11;;;;;;;8.13;3.90;;;;;;;29.99;33.91;95366.47;5074537;28;20445;-81
2022/07/17 11:08:41;;;;;;;3.90;3.10;;;;;;;30.10;33.53;95368.38;5074902;28;20453;-81
2022/07/17 11:11:10;;;;;;;4.13;3.33;;;;;;;30.14;33.28;95368.72;5074670;28;20445;-82
2022/07/17 11:13:37;;;;;;;7.00;4.23;;;;;;;30.19;32.11;95372.34;5039082;28;20496;-80
2022/07/17 11:16:04;;;;;;;4.27;3.97;;;;;;;30.23;32.46;95355.59;5055800;28;20441;-80
2022/07/17 11:18:31;;;;;;;3.57;3.30;;;;;;;30.24;32.41;95358.06;5074188;28;20920;-77
2022/07/17 11:20:59;;;;;;;4.60;4.13;;;;;;;30.27;32.60;95356.75;5055064;28;20437;-77
2022/07/17 11:23:30;;;;;;;4.10;3.70;;;;;;;30.19;32.76;95361.50;5073875;28;20449;-79
2022/07/17 11:26:00;;;;;;;4.10;3.80;;;;;;;30.15;33.73;95356.81;5074146;28;20460;-77
2022/07/17 11:28:34;;;;;;;4.90;3.93;;;;;;;30.23;33.70;95351.00;5073830;28;20452;-76
2022/07/17 11:31:03;;;;;;;6.13;4.77;;;;;;;30.33;33.27;95351.19;5074047;28;20443;-78
2022/07/17 11:33:30;;;;;;;3.87;3.40;;;;;;;30.41;33.05;95345.41;5073784;28;20488;-75
2022/07/17 11:35:57;;;;;;;4.27;3.97;;;;;;;30.57;34.30;95345.69;5073660;28;20452;-77